sensor_id;sensor_type;location;lat;lon;timestamp;temperature;humidity
15286;DHT22;7744;52.172;10.668;2023-02-01T00:01:57;4.60;1.00
15286;DHT22;7744;52.172;10.668;2023-02-01T00:04:22;4.50;1.00
15286;DHT22;7744;52.172;10.668;2023-02-01T00:06:48;4.50;1.00
15286;DHT22;7744;52.172;10.668;2023-02-01T00:09:14;4.60;1.00
15286;DHT22;7744;52.172;10.668;2023-02-01T00:11:39;4.50;1.00
15286;DHT22;7744;52.172;10.668;2023-02-01T00:14:05;4.50;1.00
15286;DHT22;7744;52.172;10.668;2023-02-01T00:16:31;4.50;1.00
15286;DHT22;7744;52.172;10.668;2023-02-01T00:19:23;4.60;1.00
15286;DHT22;7744;52.172;10.668;2023-02-01T00:21:49;4.60;1.00
15286;DHT22;7744;52.172;10.668;2023-02-01T00:24:14;4.60;1.00
15286;DHT22;7744;52.172;10.668;2023-02-01T00:26:42;4.60;1.00
15286;DHT22;7744;52.172;10.668;2023-02-01T00:29:26;4.50;1.00
15286;DHT22;7744;52.172;10.668;2023-02-01T00:31:52;4.50;1.00
15286;DHT22;7744;52.172;10.668;2023-02-01T00:34:18;4.50;1.00
15286;DHT22;7744;52.172;10.668;2023-02-01T00:36:44;4.50;1.00
15286;DHT22;7744;52.172;10.668;2023-02-01T00:39:11;4.50;1.00
15286;DHT22;7744;52.172;10.668;2023-02-01T00:41:37;4.50;1.00
15286;DHT22;7744;52.172;10.668;2023-02-01T00:44:03;4.50;1.00
15286;DHT22;7744;52.172;10.668;2023-02-01T00:46:28;4.40;1.00
15286;DHT22;7744;52.172;10.668;2023-02-01T00:48:54;4.40;1.00
15286;DHT22;7744;52.172;10.668;2023-02-01T00:51:22;4.40;1.00
15286;DHT22;7744;52.172;10.668;2023-02-01T00:53:49;4.40;1.00
15286;DHT22;7744;52.172;10.668;2023-02-01T00:56:15;4.40;1.00
15286;DHT22;7744;52.172;10.668;2023-02-01T00:58:41;4.60;1.00
15286;DHT22;7744;52.172;10.668;2023-02-01T01:01:32;4.40;1.00
15286;DHT22;7744;52.172;10.668;2023-02-01T01:03:59;4.40;1.00
15286;DHT22;7744;52.172;10.668;2023-02-01T01:06:27;4.40;1.00
15286;DHT22;7744;52.172;10.668;2023-02-01T01:08:55;4.40;1.00
15286;DHT22;7744;52.172;10.668;2023-02-01T01:11:24;4.40;1.00
15286;DHT22;7744;52.172;10.668;2023-02-01T01:13:51;4.40;1.00
15286;DHT22;7744;52.172;10.668;2023-02-01T01:16:18;4.40;1.00
15286;DHT22;7744;52.172;10.668;2023-02-01T01:18:43;4.40;1.00
15286;DHT22;7744;52.172;10.668;2023-02-01T01:21:12;4.50;1.00
15286;DHT22;7744;52.172;10.668;2023-02-01T01:23:37;4.40;1.00
15286;DHT22;7744;52.172;10.668;2023-02-01T01:26:07;4.50;1.00
15286;DHT22;7744;52.172;10.668;2023-02-01T01:28:33;4.40;1.00
15286;DHT22;7744;52.172;10.668;2023-02-01T01:30:59;4.40;1.00
15286;DHT22;7744;52.172;10.668;2023-02-01T01:33:25;4.40;1.00
15286;DHT22;7744;52.172;10.668;2023-02-01T01:35:50;4.40;1.00
15286;DHT22;7744;52.172;10.668;2023-02-01T01:38:16;4.50;1.00
15286;DHT22;7744;52.172;10.668;2023-02-01T01:40:45;4.50;1.00
15286;DHT22;7744;52.172;10.668;2023-02-01T01:43:15;4.50;1.00
15286;DHT22;7744;52.172;10.668;2023-02-01T01:45:41;4.30;99.90
15286;DHT22;7744;52.172;10.668;2023-02-01T01:48:13;4.50;1.00
15286;DHT22;7744;52.172;10.668;2023-02-01T01:50:44;4.50;1.00
15286;DHT22;7744;52.172;10.668;2023-02-01T01:53:17;4.50;1.00
15286;DHT22;7744;52.172;10.668;2023-02-01T01:55:46;4.40;1.00
15286;DHT22;7744;52.172;10.668;2023-02-01T01:58:17;4.50;1.00
15286;DHT22;7744;52.172;10.668;2023-02-01T02:00:44;4.40;1.00
15286;DHT22;7744;52.172;10.668;2023-02-01T02:03:45;4.40;1.00
15286;DHT22;7744;52.172;10.668;2023-02-01T02:06:30;4.40;1.00
15286;DHT22;7744;52.172;10.668;2023-02-01T02:08:56;4.40;1.00
15286;DHT22;7744;52.172;10.668;2023-02-01T02:11:22;4.40;1.00
15286;DHT22;7744;52.172;10.668;2023-02-01T02:13:50;4.40;1.00
15286;DHT22;7744;52.172;10.668;2023-02-01T02:22:13;4.40;1.00
15286;DHT22;7744;52.172;10.668;2023-02-01T02:30:34;4.40;1.00
15286;DHT22;7744;52.172;10.668;2023-02-01T02:36:27;4.40;1.00
15286;DHT22;7744;52.172;10.668;2023-02-01T02:39:21;4.50;1.00
15286;DHT22;7744;52.172;10.668;2023-02-01T02:50:37;4.50;1.00
15286;DHT22;7744;52.172;10.668;2023-02-01T02:53:58;4.50;1.00
15286;DHT22;7744;52.172;10.668;2023-02-01T02:56:44;4.30;1.00
15286;DHT22;7744;52.172;10.668;2023-02-01T02:59:29;4.40;1.00
15286;DHT22;7744;52.172;10.668;2023-02-01T03:02:14;4.40;1.00
15286;DHT22;7744;52.172;10.668;2023-02-01T03:05:00;4.30;1.00
15286;DHT22;7744;52.172;10.668;2023-02-01T03:12:50;4.30;1.00
15286;DHT22;7744;52.172;10.668;2023-02-01T03:15:32;4.30;1.00
15286;DHT22;7744;52.172;10.668;2023-02-01T03:18:01;4.30;1.00
15286;DHT22;7744;52.172;10.668;2023-02-01T03:20:28;4.30;1.00
15286;DHT22;7744;52.172;10.668;2023-02-01T03:22:55;4.30;1.00
15286;DHT22;7744;52.172;10.668;2023-02-01T03:25:27;4.30;1.00
15286;DHT22;7744;52.172;10.668;2023-02-01T03:28:01;4.30;1.00
15286;DHT22;7744;52.172;10.668;2023-02-01T03:30:34;4.40;1.00
15286;DHT22;7744;52.172;10.668;2023-02-01T03:33:04;4.40;1.00
15286;DHT22;7744;52.172;10.668;2023-02-01T03:38:27;4.40;1.00
15286;DHT22;7744;52.172;10.668;2023-02-01T03:41:27;4.40;1.00
15286;DHT22;7744;52.172;10.668;2023-02-01T03:43:58;4.40;1.00
15286;DHT22;7744;52.172;10.668;2023-02-01T03:46:35;4.50;1.00
15286;DHT22;7744;52.172;10.668;2023-02-01T03:49:06;4.50;1.00
15286;DHT22;7744;52.172;10.668;2023-02-01T03:51:33;4.50;1.00
15286;DHT22;7744;52.172;10.668;2023-02-01T03:54:01;4.50;1.00
15286;DHT22;7744;52.172;10.668;2023-02-01T03:56:29;4.40;1.00
15286;DHT22;7744;52.172;10.668;2023-02-01T03:58:55;4.40;1.00
15286;DHT22;7744;52.172;10.668;2023-02-01T04:01:26;4.40;1.00
15286;DHT22;7744;52.172;10.668;2023-02-01T04:03:51;4.40;1.00
15286;DHT22;7744;52.172;10.668;2023-02-01T04:06:17;4.50;1.00
15286;DHT22;7744;52.172;10.668;2023-02-01T04:08:43;4.50;1.00
15286;DHT22;7744;52.172;10.668;2023-02-01T04:11:08;4.50;1.00
15286;DHT22;7744;52.172;10.668;2023-02-01T04:13:34;4.50;1.00
15286;DHT22;7744;52.172;10.668;2023-02-01T04:15:59;4.60;1.00
15286;DHT22;7744;52.172;10.668;2023-02-01T04:18:25;4.60;1.00
15286;DHT22;7744;52.172;10.668;2023-02-01T04:20:50;4.60;1.00
15286;DHT22;7744;52.172;10.668;2023-02-01T04:23:16;4.50;1.00
15286;DHT22;7744;52.172;10.668;2023-02-01T04:25:41;4.50;1.00
15286;DHT22;7744;52.172;10.668;2023-02-01T04:28:07;4.50;1.00
15286;DHT22;7744;52.172;10.668;2023-02-01T04:30:33;4.50;1.40
15286;DHT22;7744;52.172;10.668;2023-02-01T04:32:58;4.60;1.00
15286;DHT22;7744;52.172;10.668;2023-02-01T04:35:24;4.50;1.90
15286;DHT22;7744;52.172;10.668;2023-02-01T04:37:49;4.50;6.00
15286;DHT22;7744;52.172;10.668;2023-02-01T04:40:15;4.50;18.50
15286;DHT22;7744;52.172;10.668;2023-02-01T04:42:40;4.50;28.40
15286;DHT22;7744;52.172;10.668;2023-02-01T04:45:06;4.40;45.90
15286;DHT22;7744;52.172;10.668;2023-02-01T04:47:32;4.30;56.50
15286;DHT22;7744;52.172;10.668;2023-02-01T04:49:57;4.30;69.70
15286;DHT22;7744;52.172;10.668;2023-02-01T04:52:23;4.30;78.60
15286;DHT22;7744;52.172;10.668;2023-02-01T04:54:49;4.20;88.50
15286;DHT22;7744;52.172;10.668;2023-02-01T04:57:14;4.20;78.80
15286;DHT22;7744;52.172;10.668;2023-02-01T04:59:40;4.30;90.60
15286;DHT22;7744;52.172;10.668;2023-02-01T05:02:06;4.20;91.10
15286;DHT22;7744;52.172;10.668;2023-02-01T05:04:31;4.20;92.60
15286;DHT22;7744;52.172;10.668;2023-02-01T05:06:57;4.20;89.60
15286;DHT22;7744;52.172;10.668;2023-02-01T05:09:22;4.20;91.30
15286;DHT22;7744;52.172;10.668;2023-02-01T05:11:48;4.20;72.90
15286;DHT22;7744;52.172;10.668;2023-02-01T05:14:32;4.20;72.40
15286;DHT22;7744;52.172;10.668;2023-02-01T05:16:58;4.20;71.30
15286;DHT22;7744;52.172;10.668;2023-02-01T05:19:23;4.20;64.90
15286;DHT22;7744;52.172;10.668;2023-02-01T05:21:49;4.30;56.30
15286;DHT22;7744;52.172;10.668;2023-02-01T05:24:14;4.30;51.90
15286;DHT22;7744;52.172;10.668;2023-02-01T05:26:45;4.30;48.00
15286;DHT22;7744;52.172;10.668;2023-02-01T05:29:11;4.30;41.90
15286;DHT22;7744;52.172;10.668;2023-02-01T05:31:37;4.30;37.40
15286;DHT22;7744;52.172;10.668;2023-02-01T05:34:03;4.30;36.00
15286;DHT22;7744;52.172;10.668;2023-02-01T05:36:29;4.30;34.30
15286;DHT22;7744;52.172;10.668;2023-02-01T05:38:55;4.40;31.60
15286;DHT22;7744;52.172;10.668;2023-02-01T05:41:20;4.40;33.30
15286;DHT22;7744;52.172;10.668;2023-02-01T05:43:46;4.40;49.80
15286;DHT22;7744;52.172;10.668;2023-02-01T05:46:12;4.30;96.10
15286;DHT22;7744;52.172;10.668;2023-02-01T05:48:42;4.30;99.90
15286;DHT22;7744;52.172;10.668;2023-02-01T05:51:08;4.20;99.90
15286;DHT22;7744;52.172;10.668;2023-02-01T05:53:34;4.20;99.90
15286;DHT22;7744;52.172;10.668;2023-02-01T05:56:00;4.20;99.90
15286;DHT22;7744;52.172;10.668;2023-02-01T05:58:26;4.10;99.90
15286;DHT22;7744;52.172;10.668;2023-02-01T06:00:51;4.20;99.90
15286;DHT22;7744;52.172;10.668;2023-02-01T06:03:17;4.20;99.90
15286;DHT22;7744;52.172;10.668;2023-02-01T06:05:46;4.20;99.90
15286;DHT22;7744;52.172;10.668;2023-02-01T06:08:13;4.20;99.90
15286;DHT22;7744;52.172;10.668;2023-02-01T06:10:38;5.00;99.90
15286;DHT22;7744;52.172;10.668;2023-02-01T06:13:04;4.20;99.90
15286;DHT22;7744;52.172;10.668;2023-02-01T06:15:30;4.10;99.90
15286;DHT22;7744;52.172;10.668;2023-02-01T06:17:56;4.10;99.90
15286;DHT22;7744;52.172;10.668;2023-02-01T06:20:22;4.00;99.90
15286;DHT22;7744;52.172;10.668;2023-02-01T06:22:47;4.00;99.90
15286;DHT22;7744;52.172;10.668;2023-02-01T06:25:13;4.00;99.90
15286;DHT22;7744;52.172;10.668;2023-02-01T06:27:39;4.00;99.90
15286;DHT22;7744;52.172;10.668;2023-02-01T06:30:05;4.10;99.90
15286;DHT22;7744;52.172;10.668;2023-02-01T06:32:32;4.10;99.90
15286;DHT22;7744;52.172;10.668;2023-02-01T06:34:57;4.20;99.90
15286;DHT22;7744;52.172;10.668;2023-02-01T06:37:24;4.10;99.90
15286;DHT22;7744;52.172;10.668;2023-02-01T06:39:51;4.20;99.90
15286;DHT22;7744;52.172;10.668;2023-02-01T06:42:17;4.30;99.90
15286;DHT22;7744;52.172;10.668;2023-02-01T06:44:42;4.30;99.90
15286;DHT22;7744;52.172;10.668;2023-02-01T06:47:08;4.30;99.90
15286;DHT22;7744;52.172;10.668;2023-02-01T06:49:33;4.30;99.90
15286;DHT22;7744;52.172;10.668;2023-02-01T06:51:59;4.30;99.90
15286;DHT22;7744;52.172;10.668;2023-02-01T06:54:28;4.40;99.90
15286;DHT22;7744;52.172;10.668;2023-02-01T06:56:53;4.40;99.90
15286;DHT22;7744;52.172;10.668;2023-02-01T06:59:19;4.30;99.90
15286;DHT22;7744;52.172;10.668;2023-02-01T07:01:45;4.30;99.90
15286;DHT22;7744;52.172;10.668;2023-02-01T07:04:11;3.50;99.90
15286;DHT22;7744;52.172;10.668;2023-02-01T07:06:37;4.40;99.90
15286;DHT22;7744;52.172;10.668;2023-02-01T07:09:03;4.40;99.90
15286;DHT22;7744;52.172;10.668;2023-02-01T07:11:28;4.40;99.90
15286;DHT22;7744;52.172;10.668;2023-02-01T07:13:54;4.40;99.90
15286;DHT22;7744;52.172;10.668;2023-02-01T07:16:20;4.30;99.90
15286;DHT22;7744;52.172;10.668;2023-02-01T07:18:47;6.40;99.90
15286;DHT22;7744;52.172;10.668;2023-02-01T07:21:14;4.20;99.90
15286;DHT22;7744;52.172;10.668;2023-02-01T07:23:40;4.20;99.90
15286;DHT22;7744;52.172;10.668;2023-02-01T07:26:06;4.20;99.90
15286;DHT22;7744;52.172;10.668;2023-02-01T07:28:34;4.20;99.90
15286;DHT22;7744;52.172;10.668;2023-02-01T07:31:14;4.20;99.90
15286;DHT22;7744;52.172;10.668;2023-02-01T07:33:41;4.20;99.90
15286;DHT22;7744;52.172;10.668;2023-02-01T07:36:11;4.20;99.90
15286;DHT22;7744;52.172;10.668;2023-02-01T07:38:37;4.20;99.90
15286;DHT22;7744;52.172;10.668;2023-02-01T07:41:04;4.20;99.90
15286;DHT22;7744;52.172;10.668;2023-02-01T07:43:31;4.20;99.90
15286;DHT22;7744;52.172;10.668;2023-02-01T07:45:58;4.20;99.90
15286;DHT22;7744;52.172;10.668;2023-02-01T07:48:24;4.30;99.90
15286;DHT22;7744;52.172;10.668;2023-02-01T07:50:57;4.20;99.90
15286;DHT22;7744;52.172;10.668;2023-02-01T07:53:24;4.30;99.90
15286;DHT22;7744;52.172;10.668;2023-02-01T07:55:49;4.30;99.90
15286;DHT22;7744;52.172;10.668;2023-02-01T07:58:15;4.30;99.90
15286;DHT22;7744;52.172;10.668;2023-02-01T08:00:40;4.40;99.90
15286;DHT22;7744;52.172;10.668;2023-02-01T08:03:24;4.40;99.90
15286;DHT22;7744;52.172;10.668;2023-02-01T08:05:54;4.40;99.90
15286;DHT22;7744;52.172;10.668;2023-02-01T08:08:21;4.40;99.90
15286;DHT22;7744;52.172;10.668;2023-02-01T08:10:46;4.50;99.90
15286;DHT22;7744;52.172;10.668;2023-02-01T08:13:12;4.50;99.90
15286;DHT22;7744;52.172;10.668;2023-02-01T08:15:38;4.50;99.90
15286;DHT22;7744;52.172;10.668;2023-02-01T08:18:03;4.50;99.90
15286;DHT22;7744;52.172;10.668;2023-02-01T08:20:29;4.50;99.90
15286;DHT22;7744;52.172;10.668;2023-02-01T08:22:55;4.50;99.90
15286;DHT22;7744;52.172;10.668;2023-02-01T08:25:21;4.50;99.90
15286;DHT22;7744;52.172;10.668;2023-02-01T08:27:47;4.40;99.90
15286;DHT22;7744;52.172;10.668;2023-02-01T08:30:13;4.40;99.90
15286;DHT22;7744;52.172;10.668;2023-02-01T08:32:38;4.30;99.90
15286;DHT22;7744;52.172;10.668;2023-02-01T08:35:04;4.40;99.90
15286;DHT22;7744;52.172;10.668;2023-02-01T08:37:31;4.40;99.90
15286;DHT22;7744;52.172;10.668;2023-02-01T08:39:56;4.40;99.90
15286;DHT22;7744;52.172;10.668;2023-02-01T08:42:22;6.60;99.90
15286;DHT22;7744;52.172;10.668;2023-02-01T08:45:07;4.50;99.90
15286;DHT22;7744;52.172;10.668;2023-02-01T08:47:35;4.40;99.90
15286;DHT22;7744;52.172;10.668;2023-02-01T08:50:01;4.40;99.90
15286;DHT22;7744;52.172;10.668;2023-02-01T08:52:26;4.50;99.90
15286;DHT22;7744;52.172;10.668;2023-02-01T08:54:52;4.50;99.90
15286;DHT22;7744;52.172;10.668;2023-02-01T08:57:17;4.50;99.90
15286;DHT22;7744;52.172;10.668;2023-02-01T08:59:43;4.60;99.90
15286;DHT22;7744;52.172;10.668;2023-02-01T09:02:13;4.60;99.90
15286;DHT22;7744;52.172;10.668;2023-02-01T09:04:40;4.70;99.90
15286;DHT22;7744;52.172;10.668;2023-02-01T09:07:07;4.60;99.90
15286;DHT22;7744;52.172;10.668;2023-02-01T09:09:33;4.70;99.90
15286;DHT22;7744;52.172;10.668;2023-02-01T09:11:58;4.80;99.90
15286;DHT22;7744;52.172;10.668;2023-02-01T09:14:24;4.90;99.90
15286;DHT22;7744;52.172;10.668;2023-02-01T09:16:49;4.80;99.90
15286;DHT22;7744;52.172;10.668;2023-02-01T09:19:15;4.80;99.90
15286;DHT22;7744;52.172;10.668;2023-02-01T09:21:41;4.90;99.90
15286;DHT22;7744;52.172;10.668;2023-02-01T09:24:06;4.90;99.90
15286;DHT22;7744;52.172;10.668;2023-02-01T09:26:33;4.90;99.90
15286;DHT22;7744;52.172;10.668;2023-02-01T09:28:59;4.90;99.90
15286;DHT22;7744;52.172;10.668;2023-02-01T09:31:25;5.00;97.40
15286;DHT22;7744;52.172;10.668;2023-02-01T09:33:51;5.10;92.80
15286;DHT22;7744;52.172;10.668;2023-02-01T09:36:16;5.10;69.60
15286;DHT22;7744;52.172;10.668;2023-02-01T09:38:45;5.20;59.90
15286;DHT22;7744;52.172;10.668;2023-02-01T09:44:48;5.30;51.30
15286;DHT22;7744;52.172;10.668;2023-02-01T09:46:54;5.30;57.20
15286;DHT22;7744;52.172;10.668;2023-02-01T09:49:29;5.40;45.00
15286;DHT22;7744;52.172;10.668;2023-02-01T09:51:56;5.50;23.20
15286;DHT22;7744;52.172;10.668;2023-02-01T09:54:25;5.50;21.60
15286;DHT22;7744;52.172;10.668;2023-02-01T09:57:04;5.60;13.70
15286;DHT22;7744;52.172;10.668;2023-02-01T09:59:41;5.60;8.20
15286;DHT22;7744;52.172;10.668;2023-02-01T10:02:23;5.60;6.60
15286;DHT22;7744;52.172;10.668;2023-02-01T10:04:50;5.60;1.00
15286;DHT22;7744;52.172;10.668;2023-02-01T10:10:11;5.60;1.00
15286;DHT22;7744;52.172;10.668;2023-02-01T10:13:08;5.70;1.00
15286;DHT22;7744;52.172;10.668;2023-02-01T10:26:33;5.70;1.00
15286;DHT22;7744;52.172;10.668;2023-02-01T10:29:04;6.80;1.00
15286;DHT22;7744;52.172;10.668;2023-02-01T10:31:36;5.70;1.00
15286;DHT22;7744;52.172;10.668;2023-02-01T10:34:27;5.60;1.00
15286;DHT22;7744;52.172;10.668;2023-02-01T10:39:49;5.70;1.00
15286;DHT22;7744;52.172;10.668;2023-02-01T10:42:20;5.70;1.00
15286;DHT22;7744;52.172;10.668;2023-02-01T10:44:46;5.90;1.00
15286;DHT22;7744;52.172;10.668;2023-02-01T10:47:14;6.00;1.00
15286;DHT22;7744;52.172;10.668;2023-02-01T10:49:50;6.00;1.00
15286;DHT22;7744;52.172;10.668;2023-02-01T10:58:03;6.20;1.00
15286;DHT22;7744;52.172;10.668;2023-02-01T11:05:57;6.20;1.00
15286;DHT22;7744;52.172;10.668;2023-02-01T11:08:23;6.20;1.00
15286;DHT22;7744;52.172;10.668;2023-02-01T11:10:58;6.20;1.00
15286;DHT22;7744;52.172;10.668;2023-02-01T11:13:29;6.20;1.00
15286;DHT22;7744;52.172;10.668;2023-02-01T11:16:01;6.20;1.00
15286;DHT22;7744;52.172;10.668;2023-02-01T11:18:31;6.20;1.00
15286;DHT22;7744;52.172;10.668;2023-02-01T11:20:57;6.20;1.00
15286;DHT22;7744;52.172;10.668;2023-02-01T11:23:26;6.20;1.00
15286;DHT22;7744;52.172;10.668;2023-02-01T11:25:55;6.10;1.00
15286;DHT22;7744;52.172;10.668;2023-02-01T11:28:29;6.00;1.00
15286;DHT22;7744;52.172;10.668;2023-02-01T11:30:58;6.70;1.00
15286;DHT22;7744;52.172;10.668;2023-02-01T11:33:29;6.10;1.00
15286;DHT22;7744;52.172;10.668;2023-02-01T11:35:57;6.10;1.00
15286;DHT22;7744;52.172;10.668;2023-02-01T11:38:31;6.10;1.00
15286;DHT22;7744;52.172;10.668;2023-02-01T11:41:24;6.10;1.00
15286;DHT22;7744;52.172;10.668;2023-02-01T11:43:56;6.20;1.00
15286;DHT22;7744;52.172;10.668;2023-02-01T11:46:26;6.20;1.00
15286;DHT22;7744;52.172;10.668;2023-02-01T11:48:54;6.70;1.00
15286;DHT22;7744;52.172;10.668;2023-02-01T11:51:46;6.10;1.00
15286;DHT22;7744;52.172;10.668;2023-02-01T11:54:30;6.10;1.00
15286;DHT22;7744;52.172;10.668;2023-02-01T11:57:27;6.10;1.00
15286;DHT22;7744;52.172;10.668;2023-02-01T12:10:35;6.20;1.00
15286;DHT22;7744;52.172;10.668;2023-02-01T12:26:49;6.20;1.00
15286;DHT22;7744;52.172;10.668;2023-02-01T12:45:33;6.50;1.00
15286;DHT22;7744;52.172;10.668;2023-02-01T12:48:18;6.40;1.00
15286;DHT22;7744;52.172;10.668;2023-02-01T12:50:54;6.40;1.00
15286;DHT22;7744;52.172;10.668;2023-02-01T12:53:27;6.20;1.00
15286;DHT22;7744;52.172;10.668;2023-02-01T12:56:00;6.20;1.00
15286;DHT22;7744;52.172;10.668;2023-02-01T13:01:09;6.00;1.00
15286;DHT22;7744;52.172;10.668;2023-02-01T13:04:05;6.00;1.00
15286;DHT22;7744;52.172;10.668;2023-02-01T13:06:40;6.10;1.00
15286;DHT22;7744;52.172;10.668;2023-02-01T13:09:26;6.10;1.00
15286;DHT22;7744;52.172;10.668;2023-02-01T13:11:55;6.10;1.00
15286;DHT22;7744;52.172;10.668;2023-02-01T13:14:34;6.00;1.00
15286;DHT22;7744;52.172;10.668;2023-02-01T13:17:18;5.90;1.00
15286;DHT22;7744;52.172;10.668;2023-02-01T13:20:05;5.90;1.00
15286;DHT22;7744;52.172;10.668;2023-02-01T13:22:39;5.80;1.00
15286;DHT22;7744;52.172;10.668;2023-02-01T13:25:14;5.60;1.00
15286;DHT22;7744;52.172;10.668;2023-02-01T13:27:41;5.50;1.00
15286;DHT22;7744;52.172;10.668;2023-02-01T13:32:52;5.40;1.00
15286;DHT22;7744;52.172;10.668;2023-02-01T13:43:28;5.40;1.00
15286;DHT22;7744;52.172;10.668;2023-02-01T13:46:04;5.40;1.80
15286;DHT22;7744;52.172;10.668;2023-02-01T13:48:40;5.50;5.80
15286;DHT22;7744;52.172;10.668;2023-02-01T13:51:07;5.40;6.90
15286;DHT22;7744;52.172;10.668;2023-02-01T13:53:35;5.40;6.70
15286;DHT22;7744;52.172;10.668;2023-02-01T13:56:18;5.40;18.20
15286;DHT22;7744;52.172;10.668;2023-02-01T13:58:45;5.30;43.20
15286;DHT22;7744;52.172;10.668;2023-02-01T14:03:57;5.10;99.90
15286;DHT22;7744;52.172;10.668;2023-02-01T14:19:27;4.20;1.00
15286;DHT22;7744;52.172;10.668;2023-02-01T14:21:58;3.80;1.00
15286;DHT22;7744;52.172;10.668;2023-02-01T14:24:34;3.80;1.00
15286;DHT22;7744;52.172;10.668;2023-02-01T14:27:24;3.70;1.00
15286;DHT22;7744;52.172;10.668;2023-02-01T14:29:57;3.80;1.00
15286;DHT22;7744;52.172;10.668;2023-02-01T14:32:36;3.70;1.00
15286;DHT22;7744;52.172;10.668;2023-02-01T14:35:07;3.50;1.00
15286;DHT22;7744;52.172;10.668;2023-02-01T14:37:38;3.40;77.90
15286;DHT22;7744;52.172;10.668;2023-02-01T14:40:05;3.30;21.00
15286;DHT22;7744;52.172;10.668;2023-02-01T14:42:49;3.10;1.00
15286;DHT22;7744;52.172;10.668;2023-02-01T14:58:58;3.00;1.00
15286;DHT22;7744;52.172;10.668;2023-02-01T15:01:35;3.00;1.00
15286;DHT22;7744;52.172;10.668;2023-02-01T15:04:13;2.90;1.00
15286;DHT22;7744;52.172;10.668;2023-02-01T15:06:57;3.00;1.00
15286;DHT22;7744;52.172;10.668;2023-02-01T15:09:29;3.00;1.00
15286;DHT22;7744;52.172;10.668;2023-02-01T15:12:15;2.90;1.00
15286;DHT22;7744;52.172;10.668;2023-02-01T15:20:24;2.90;1.00
15286;DHT22;7744;52.172;10.668;2023-02-01T15:22:57;2.80;1.00
15286;DHT22;7744;52.172;10.668;2023-02-01T15:25:33;2.80;1.00
15286;DHT22;7744;52.172;10.668;2023-02-01T15:28:00;2.80;1.00
15286;DHT22;7744;52.172;10.668;2023-02-01T15:30:31;2.70;1.00
15286;DHT22;7744;52.172;10.668;2023-02-01T15:35:44;3.90;1.00
15286;DHT22;7744;52.172;10.668;2023-02-01T15:41:11;2.70;1.00
15286;DHT22;7744;52.172;10.668;2023-02-01T15:43:46;2.80;1.00
15286;DHT22;7744;52.172;10.668;2023-02-01T15:46:22;2.70;1.00
15286;DHT22;7744;52.172;10.668;2023-02-01T15:48:50;2.70;1.00
15286;DHT22;7744;52.172;10.668;2023-02-01T15:51:21;2.70;1.00
15286;DHT22;7744;52.172;10.668;2023-02-01T15:53:54;2.70;1.00
15286;DHT22;7744;52.172;10.668;2023-02-01T15:56:23;2.60;1.00
15286;DHT22;7744;52.172;10.668;2023-02-01T15:58:53;2.60;1.00
15286;DHT22;7744;52.172;10.668;2023-02-01T16:01:19;2.50;1.00
15286;DHT22;7744;52.172;10.668;2023-02-01T16:03:46;2.60;1.00
15286;DHT22;7744;52.172;10.668;2023-02-01T16:08:54;2.50;1.00
15286;DHT22;7744;52.172;10.668;2023-02-01T16:13:52;2.50;1.00
15286;DHT22;7744;52.172;10.668;2023-02-01T16:16:18;2.50;1.00
15286;DHT22;7744;52.172;10.668;2023-02-01T16:18:43;2.60;1.00
15286;DHT22;7744;52.172;10.668;2023-02-01T16:21:10;2.60;1.00
15286;DHT22;7744;52.172;10.668;2023-02-01T16:23:36;2.60;1.00
15286;DHT22;7744;52.172;10.668;2023-02-01T16:26:03;2.60;1.00
15286;DHT22;7744;52.172;10.668;2023-02-01T16:28:28;2.70;1.00
15286;DHT22;7744;52.172;10.668;2023-02-01T16:30:54;2.60;1.00
15286;DHT22;7744;52.172;10.668;2023-02-01T16:33:21;2.70;1.00
15286;DHT22;7744;52.172;10.668;2023-02-01T16:35:50;3.80;1.00
15286;DHT22;7744;52.172;10.668;2023-02-01T16:38:18;2.70;1.00
15286;DHT22;7744;52.172;10.668;2023-02-01T16:40:47;2.70;1.00
15286;DHT22;7744;52.172;10.668;2023-02-01T16:43:22;2.80;1.00
15286;DHT22;7744;52.172;10.668;2023-02-01T16:45:49;2.90;1.00
15286;DHT22;7744;52.172;10.668;2023-02-01T16:48:36;3.00;99.90
15286;DHT22;7744;52.172;10.668;2023-02-01T16:51:10;3.00;1.00
15286;DHT22;7744;52.172;10.668;2023-02-01T16:53:36;3.00;99.90
15286;DHT22;7744;52.172;10.668;2023-02-01T16:56:12;3.00;1.00
15286;DHT22;7744;52.172;10.668;2023-02-01T16:58:38;3.00;1.00
15286;DHT22;7744;52.172;10.668;2023-02-01T17:01:06;3.00;1.00
15286;DHT22;7744;52.172;10.668;2023-02-01T17:03:33;3.10;1.00
15286;DHT22;7744;52.172;10.668;2023-02-01T17:05:59;3.00;1.00
15286;DHT22;7744;52.172;10.668;2023-02-01T17:08:33;3.10;1.00
15286;DHT22;7744;52.172;10.668;2023-02-01T17:10:59;3.10;99.90
15286;DHT22;7744;52.172;10.668;2023-02-01T17:13:26;3.10;99.90
15286;DHT22;7744;52.172;10.668;2023-02-01T17:15:58;3.10;99.90
15286;DHT22;7744;52.172;10.668;2023-02-01T17:18:27;3.00;99.90
15286;DHT22;7744;52.172;10.668;2023-02-01T17:20:57;3.10;99.90
15286;DHT22;7744;52.172;10.668;2023-02-01T17:23:22;3.10;99.90
15286;DHT22;7744;52.172;10.668;2023-02-01T17:25:48;3.10;99.90
15286;DHT22;7744;52.172;10.668;2023-02-01T17:28:14;3.10;99.90
15286;DHT22;7744;52.172;10.668;2023-02-01T17:30:39;3.10;99.90
15286;DHT22;7744;52.172;10.668;2023-02-01T17:33:34;3.10;99.90
15286;DHT22;7744;52.172;10.668;2023-02-01T17:35:58;3.10;99.90
15286;DHT22;7744;52.172;10.668;2023-02-01T17:38:24;3.20;99.90
15286;DHT22;7744;52.172;10.668;2023-02-01T17:40:50;3.30;99.90
15286;DHT22;7744;52.172;10.668;2023-02-01T17:43:20;2.90;99.90
15286;DHT22;7744;52.172;10.668;2023-02-01T17:45:49;3.30;99.90
15286;DHT22;7744;52.172;10.668;2023-02-01T17:48:18;3.40;99.90
15286;DHT22;7744;52.172;10.668;2023-02-01T17:50:45;3.50;99.90
15286;DHT22;7744;52.172;10.668;2023-02-01T17:53:12;3.50;99.90
15286;DHT22;7744;52.172;10.668;2023-02-01T17:55:41;3.60;99.90
15286;DHT22;7744;52.172;10.668;2023-02-01T17:58:10;3.60;99.90
15286;DHT22;7744;52.172;10.668;2023-02-01T18:00:36;3.60;99.90
15286;DHT22;7744;52.172;10.668;2023-02-01T18:03:01;3.70;99.90
15286;DHT22;7744;52.172;10.668;2023-02-01T18:05:38;3.70;99.90
15286;DHT22;7744;52.172;10.668;2023-02-01T18:08:05;3.70;99.90
15286;DHT22;7744;52.172;10.668;2023-02-01T18:10:31;3.70;99.90
15286;DHT22;7744;52.172;10.668;2023-02-01T18:12:56;4.80;99.90
15286;DHT22;7744;52.172;10.668;2023-02-01T18:15:24;3.80;99.90
15286;DHT22;7744;52.172;10.668;2023-02-01T18:17:49;3.80;99.90
15286;DHT22;7744;52.172;10.668;2023-02-01T18:20:17;3.80;99.90
15286;DHT22;7744;52.172;10.668;2023-02-01T18:22:44;3.90;99.90
15286;DHT22;7744;52.172;10.668;2023-02-01T18:27:45;3.70;99.90
15286;DHT22;7744;52.172;10.668;2023-02-01T18:30:11;3.60;99.90
15286;DHT22;7744;52.172;10.668;2023-02-01T18:32:37;3.50;1.00
15286;DHT22;7744;52.172;10.668;2023-02-01T18:35:29;3.30;1.00
15286;DHT22;7744;52.172;10.668;2023-02-01T18:37:55;3.20;1.00
15286;DHT22;7744;52.172;10.668;2023-02-01T18:40:30;2.90;1.00
15286;DHT22;7744;52.172;10.668;2023-02-01T18:42:59;3.00;14.10
15286;DHT22;7744;52.172;10.668;2023-02-01T18:45:36;3.00;48.50
15286;DHT22;7744;52.172;10.668;2023-02-01T18:48:04;3.80;99.90
15286;DHT22;7744;52.172;10.668;2023-02-01T18:50:32;3.40;99.90
15286;DHT22;7744;52.172;10.668;2023-02-01T18:52:59;3.00;99.90
15286;DHT22;7744;52.172;10.668;2023-02-01T18:55:26;3.10;99.90
15286;DHT22;7744;52.172;10.668;2023-02-01T18:57:52;3.20;80.90